createdAt,value
2019-05-16T00:04:40.642Z,67
2019-05-16T00:09:42.874Z,67.400002
2019-05-16T00:14:45.185Z,67.599998
2019-05-16T00:19:48.417Z,68.699997
2019-05-16T00:24:49.728Z,67
2019-05-16T00:29:52.113Z,66.900002
2019-05-16T00:34:54.319Z,64.800003
2019-05-16T00:39:58.630Z,65.699997
2019-05-16T00:44:58.870Z,65.099998
2019-05-16T00:50:01.286Z,66.900002
2019-05-16T00:55:03.546Z,67
2019-05-16T01:00:08.122Z,66.300003
2019-05-16T01:05:08.649Z,66.599998
2019-05-16T01:10:10.512Z,64.400002
2019-05-16T01:15:12.857Z,68
2019-05-16T01:20:15.073Z,68.300003
2019-05-16T01:25:19.291Z,66.800003
2019-05-16T01:30:19.760Z,67.5
2019-05-16T01:35:21.852Z,67.199997
2019-05-16T01:40:24.143Z,66.800003
2019-05-16T01:45:27.793Z,69
2019-05-16T01:50:28.751Z,68.900002
2019-05-16T01:55:30.998Z,68.599998
2019-05-16T02:00:37.001Z,69.5
2019-05-16T02:05:35.648Z,69.900002
2019-05-16T02:10:38.111Z,70.800003
2019-05-16T02:15:40.562Z,70.800003
2019-05-16T02:20:42.503Z,70.800003
2019-05-16T02:25:44.839Z,72
2019-05-16T02:30:50.946Z,72.400002
2019-05-16T02:35:54.683Z,73.099998
2019-05-16T02:40:55.260Z,75
2019-05-16T02:45:53.979Z,75.800003
2019-05-16T02:50:56.310Z,76
2019-05-16T02:56:01.383Z,76.800003
2019-05-16T03:01:01.869Z,77.699997
2019-05-16T03:06:03.131Z,78.400002
2019-05-16T03:11:05.543Z,79.300003
2019-05-16T03:16:11.411Z,80.300003
2019-05-16T03:21:11.186Z,81
2019-05-16T03:26:12.474Z,82.599998
2019-05-16T03:31:15.846Z,83.800003
2019-05-16T03:36:17.055Z,85.599998
2019-05-16T03:41:21.540Z,85.800003
2019-05-16T03:46:21.792Z,86.800003
2019-05-16T03:51:23.828Z,87.5
2019-05-16T03:56:26.124Z,88.300003
2019-05-16T04:01:31.230Z,89.199997
2019-05-16T04:06:31.248Z,89.900002
2019-05-16T04:11:33.032Z,92.300003
2019-05-16T04:16:35.202Z,93.400002
2019-05-16T04:21:37.596Z,96.400002
2019-05-16T04:26:41.210Z,97.099998
2019-05-16T04:31:42.145Z,97.400002
2019-05-16T04:36:44.407Z,97.699997
2019-05-16T04:41:46.749Z,97.5
2019-05-16T04:46:51.025Z,97.099998
2019-05-16T04:51:51.805Z,95.900002
2019-05-16T04:56:53.697Z,94.300003
2019-05-16T05:01:55.990Z,94.400002
2019-05-16T05:07:00.517Z,90.300003
2019-05-16T05:12:04.054Z,92
2019-05-16T05:17:05.263Z,88.300003
2019-05-16T05:22:05.095Z,87.599998
2019-05-16T05:27:07.376Z,82.900002
2019-05-16T05:32:14.315Z,82.699997
2019-05-16T05:37:12.683Z,78.599998
2019-05-16T05:42:14.231Z,75
2019-05-16T05:47:16.711Z,79.300003
2019-05-16T05:52:20.826Z,73.5
2019-05-16T05:57:21.163Z,69.800003
2019-05-16T06:02:23.464Z,67.699997
2019-05-16T06:07:25.702Z,68
2019-05-16T06:12:30.330Z,64.300003
2019-05-16T06:17:30.813Z,57.5
2019-05-16T06:22:32.619Z,58.299999
2019-05-16T06:27:34.840Z,58.700001
2019-05-16T06:32:39.458Z,55
2019-05-16T06:37:40.583Z,53.5
2019-05-16T06:42:41.858Z,51.400002
2019-05-16T06:47:44.101Z,50.200001
2019-05-16T06:52:46.439Z,50.700001
2019-05-16T06:57:50.331Z,47.599998
2019-05-16T07:02:51.158Z,48
2019-05-16T07:07:53.340Z,47.799999
2019-05-16T07:12:55.765Z,49
2019-05-16T07:17:59.745Z,46.099998
2019-05-16T07:23:00.713Z,47.700001
2019-05-16T07:28:02.659Z,44.5
2019-05-16T07:33:05.086Z,41.900002
2019-05-16T07:38:06.984Z,38.5
2019-05-16T07:43:10.734Z,38.299999
2019-05-16T07:48:11.596Z,36.700001
2019-05-16T07:53:13.888Z,38.200001
2019-05-16T07:58:16.423Z,41.799999
2019-05-16T08:03:19.987Z,36.799999
2019-05-16T08:08:24.226Z,33.299999
2019-05-16T08:13:23.177Z,36.900002
2019-05-16T08:18:25.379Z,37.099998
2019-05-16T08:23:29.751Z,34.599998
2019-05-16T08:28:30.994Z,35.599998
2019-05-16T08:33:32.385Z,30.9
2019-05-16T08:38:34.525Z,29.1
2019-05-16T08:43:36.852Z,30.1
2019-05-16T08:48:42.243Z,31.6
2019-05-16T08:53:43.235Z,27.9
2019-05-16T08:58:43.753Z,26.1
2019-05-16T09:03:46.055Z,26.700001
2019-05-16T09:08:50.137Z,21.6
2019-05-16T09:13:50.575Z,25
2019-05-16T09:18:52.961Z,27.4
2019-05-16T09:23:57.585Z,28.9
2019-05-16T09:28:57.719Z,30.6
2019-05-16T09:33:59.883Z,22.5
2019-05-16T09:39:02.271Z,25.1
2019-05-16T09:44:04.567Z,18.700001
2019-05-16T09:49:16.739Z,22
2019-05-16T09:54:08.952Z,26.299999
2019-05-16T09:59:11.245Z,26.9
2019-05-16T10:04:13.557Z,24.9
2019-05-16T10:09:17.667Z,23.6
2019-05-16T10:14:18.263Z,24.4
2019-05-16T10:19:20.545Z,25.9
2019-05-16T10:24:22.875Z,21.200001
2019-05-16T10:29:27.388Z,26
2019-05-16T10:34:27.301Z,24.799999
2019-05-16T10:39:29.933Z,19.799999
2019-05-16T10:44:32.182Z,22.799999
2019-05-16T10:49:37.903Z,22.9
2019-05-16T10:54:37.081Z,23.5
2019-05-16T10:59:58.014Z,17.299999
2019-05-16T11:00:16.157Z,17.299999
2019-05-16T11:04:53.626Z,22
2019-05-16T11:09:54.758Z,22.200001
2019-05-16T11:14:47.782Z,24.200001
2019-05-16T11:19:48.017Z,20
2019-05-16T11:24:50.216Z,19.200001
2019-05-16T11:29:52.751Z,15.3
2019-05-16T11:34:55.090Z,17.799999
2019-05-16T11:39:57.244Z,23.9
2019-05-16T11:44:59.531Z,22.700001
2019-05-16T11:50:01.808Z,22.4
2019-05-16T11:55:07.184Z,19.5
2019-05-16T12:00:07.935Z,22.5
2019-05-16T12:05:09.049Z,24.200001
2019-05-16T12:10:10.887Z,25.5
2019-05-16T12:15:16.226Z,25.200001
2019-05-16T12:20:16.720Z,20.9
2019-05-16T12:25:17.781Z,23
2019-05-16T12:30:20.097Z,23.299999
2019-05-16T12:35:22.387Z,23.9
2019-05-16T12:40:26.828Z,24.700001
2019-05-16T12:45:27.655Z,26.1
2019-05-16T12:50:29.230Z,30.299999
2019-05-16T12:55:31.623Z,26.1
2019-05-16T13:00:33.907Z,26.5
2019-05-16T13:05:37.703Z,22.700001
2019-05-16T13:10:38.491Z,23.9
2019-05-16T13:15:42.457Z,25.6
2019-05-16T13:20:46.541Z,25.6
2019-05-16T13:25:47.831Z,27.5
2019-05-16T13:30:47.607Z,28.700001
2019-05-16T13:35:50.928Z,25
2019-05-16T13:40:52.278Z,25.6
2019-05-16T13:45:54.648Z,28
2019-05-16T13:51:10.633Z,26.299999
2019-05-16T13:55:59.383Z,28.700001
2019-05-16T14:01:01.483Z,28.9
2019-05-16T14:06:03.628Z,34
2019-05-16T14:11:09.903Z,36.200001
2019-05-16T14:16:08.327Z,26.299999
2019-05-16T14:21:10.717Z,20.200001
2019-05-16T14:26:12.992Z,24.9
2019-05-16T14:31:17.275Z,20
2019-05-16T14:36:17.415Z,24.1
2019-05-16T14:41:20.027Z,22.200001
2019-05-16T14:46:22.062Z,24
2019-05-16T14:51:26.935Z,22
2019-05-16T14:56:27.323Z,22.200001
2019-05-16T15:01:28.893Z,22.6
2019-05-16T15:06:31.216Z,21.4
2019-05-16T15:11:35.013Z,24.4
2019-05-16T15:16:35.898Z,22.9
2019-05-16T15:21:38.188Z,22.700001
2019-05-16T15:26:40.485Z,26.5
2019-05-16T15:31:42.778Z,26.700001
2019-05-16T15:36:46.684Z,26.299999
2019-05-16T15:41:47.453Z,25.6
2019-05-16T15:46:49.546Z,25.5
2019-05-16T15:51:51.869Z,26.1
2019-05-16T15:56:54.166Z,29.799999
2019-05-16T16:01:56.540Z,27.6
2019-05-16T16:06:58.781Z,28.799999
2019-05-16T16:12:01.016Z,29.4
2019-05-16T16:17:03.327Z,30.5
2019-05-16T16:22:07.684Z,31.200001
2019-05-16T16:27:07.950Z,28.5
2019-05-16T16:32:10.142Z,31.4
2019-05-16T16:37:12.622Z,32.900002
2019-05-16T16:42:14.803Z,32.400002
2019-05-16T16:47:17.748Z,33
2019-05-16T16:52:19.395Z,32.400002
2019-05-16T16:57:21.857Z,33.900002
2019-05-16T17:02:24.068Z,35.099998
2019-05-16T17:07:27.368Z,33.900002
2019-05-16T17:12:28.680Z,33.5
2019-05-16T17:17:30.898Z,32.200001
2019-05-16T17:22:33.157Z,32.900002
2019-05-16T17:27:37.711Z,33.299999
2019-05-16T17:32:37.824Z,34.200001
2019-05-16T17:37:40.157Z,34.099998
2019-05-16T17:42:42.444Z,35.700001
2019-05-16T17:47:46.623Z,35.700001
2019-05-16T17:52:47.831Z,34
2019-05-16T17:57:49.230Z,34.200001
2019-05-16T18:02:51.450Z,35.099998
2019-05-16T18:07:53.831Z,36.700001
2019-05-16T18:12:56.814Z,37.900002
2019-05-16T18:17:58.461Z,38.5
2019-05-16T18:23:00.696Z,36.299999
2019-05-16T18:28:03.121Z,36.099998
2019-05-16T18:33:07.413Z,38.400002
2019-05-16T18:38:07.625Z,38.200001
2019-05-16T18:43:09.845Z,39
2019-05-16T18:48:12.139Z,39.900002
2019-05-16T18:53:14.479Z,39.900002
2019-05-16T18:58:18.027Z,39.099998
2019-05-16T19:03:19.120Z,39.700001
2019-05-16T19:08:21.438Z,39.299999
2019-05-16T19:13:23.809Z,42.099998
2019-05-16T19:18:26.373Z,40.299999
2019-05-16T19:23:28.432Z,41.099998
2019-05-16T19:28:30.540Z,40.200001
2019-05-16T19:33:32.866Z,41.299999
2019-05-16T19:38:37.522Z,42.599998
2019-05-16T19:43:37.471Z,41.700001
2019-05-16T19:48:39.757Z,42
2019-05-16T19:53:42.102Z,43.200001
2019-05-16T19:58:46.649Z,44.099998
2019-05-16T20:03:47.170Z,44.900002
2019-05-16T20:08:48.891Z,45.299999
2019-05-16T20:13:51.613Z,46.700001
2019-05-16T20:18:56.170Z,45.299999
2019-05-16T20:23:56.798Z,47.400002
2019-05-16T20:28:59.471Z,45.700001
2019-05-16T20:34:00.393Z,45.799999
2019-05-16T20:39:02.759Z,48.400002
2019-05-16T20:44:06.612Z,47.599998
2019-05-16T20:49:08.175Z,47.200001
2019-05-16T20:54:09.499Z,49.400002
2019-05-16T20:59:11.870Z,48.200001
2019-05-16T21:04:14.179Z,49.099998
2019-05-16T21:09:16.927Z,50.5
2019-05-16T21:14:18.948Z,52.799999
2019-05-16T21:19:20.981Z,54
2019-05-16T21:24:23.345Z,54.5
2019-05-16T21:29:27.656Z,52.299999
2019-05-16T21:34:28.206Z,51.900002
2019-05-16T21:39:30.162Z,51.5
2019-05-16T21:44:32.452Z,51.099998
2019-05-16T21:49:36.609Z,52
2019-05-16T21:54:36.984Z,54.400002
2019-05-16T21:59:39.341Z,54.5
2019-05-16T22:04:41.711Z,55.700001
2019-05-16T22:09:43.953Z,58.299999
2019-05-16T22:14:46.683Z,59
2019-05-16T22:19:48.698Z,60.099998
2019-05-16T22:24:50.855Z,60
2019-05-16T22:29:53.156Z,61.599998
2019-05-16T22:34:57.002Z,62.799999
2019-05-16T22:39:59.725Z,64
2019-05-16T22:45:00.031Z,65.400002
2019-05-16T22:50:02.265Z,67.5
2019-05-16T22:55:04.727Z,68.5
2019-05-16T23:00:07.585Z,69.400002
2019-05-16T23:05:09.140Z,70.5
2019-05-16T23:10:11.396Z,70
2019-05-16T23:15:13.727Z,70.800003
2019-05-16T23:20:17.059Z,70.900002
2019-05-16T23:25:18.417Z,71.300003
2019-05-16T23:30:20.636Z,72.199997
2019-05-16T23:35:22.949Z,72.900002
2019-05-16T23:40:25.480Z,74.300003
2019-05-16T23:45:27.578Z,74.599998
2019-05-16T23:50:29.859Z,76.199997
2019-05-16T23:55:32.094Z,78.800003
